Messages - map view · info · telemetry · weather · raw · status · beacons · messages · bulletins · browse · moving · my account
Callsign:
Show:

Loading message packets...

APRS messages are stored for 14 days. It is possible to search using wildcards (*?) after a prefix.

2021-03-08 17:06:04 EST: WXBOT>KA6SMW-7: KDFW 082153Z 17013KT 10SM SCT220 SCT240 BKN300 21/M03 A3030 RMK AO2
2021-03-08 17:06:09 EST: WXBOT>KA6SMW-7: SLP259 T02061028
2021-03-08 17:06:10 EST: N7KJW-2>N7KJW-1: 37.11d 14.3V 60.8F 38.3F 44.8F up 63 f3d4d4
2021-03-08 17:06:22 EST: KA6SMW-7>WXBOT: Working with TM-D700
2021-03-08 17:06:25 EST: KN6JJS-9>SMSGTE: @mywife test
2021-03-08 17:06:26 EST: WXBOT>KA6SMW-7: 3 Miles NE Santa Fe Springs CA. This Afternoon,Partly Sunny High 65
2021-03-08 17:06:39 EST: SMSGTE>KN6JJS-9: @mywife Got it
2021-03-08 17:06:54 EST: PU2LYJ-15>PY5DF-15: EM
2021-03-08 17:08:07 EST: KA6SMW-7>WXBOT: kdfw
2021-03-08 17:08:13 EST: WXBOT>KA6SMW-7: KDFW 082153Z 17013KT 10SM SCT220 SCT240 BKN300 21/M03 A3030 RMK AO2
2021-03-08 17:08:18 EST: WXBOT>KA6SMW-7: SLP259 T02061028
2021-03-08 17:09:44 EST: FW0690>FW0690: UPTM.18 days, 02:00:14
2021-03-08 17:09:47 EST: KA6SMW-7>WXBOT: kful
2021-03-08 17:09:53 EST: MTHOOD>N7QME: hum 35 14 70 10 255 100 193 215
2021-03-08 17:09:53 EST: WXBOT>KA6SMW-7: KFUL 082153Z 20007KT 10SM BKN048 BKN065 19/07 A3013 RMK AO2 SLP203
2021-03-08 17:09:54 EST: KD2VEZ>KD2VEZ: low to new
2021-03-08 17:09:57 EST: KC3NGP-5>APRSPRO: S0MzTkdQLTUgREVMPzE2MTUyNDEzOTcuNzAxMTg=
2021-03-08 17:09:58 EST: WXBOT>KA6SMW-7: T01890067
2021-03-08 17:10:28 EST: YU0XPI-1>APRSMAIL: yu1ttn@gmail.com Starting APRS node
2021-03-08 17:10:42 EST: KC3NGP-5>APRSPRO: S0MzTkdQLTUgTVNHPzE2MTUyNDE0NDIuMTE4MzU=
2021-03-08 17:10:51 EST: TECMWW>BOM_WARN: 091300z,WIND,TAS_MW005>007
2021-03-08 17:10:51 EST: TMWMWW>BOM_WARN: 091300z,WIND,TAS_MW005>007
2021-03-08 17:10:51 EST: TECMWW>BOMTEC: Strong Wind Warning for coastal waters between Wineglass
2021-03-08 17:10:51 EST: TECMWW>BOMTEC: Bay and Low Rocky Point for Tuesday
2021-03-08 17:10:51 EST: TMWMWW>BOMTMW: Strong Wind Warning for coastal waters between Wineglass
2021-03-08 17:10:51 EST: TMWMWW>BOMTMW: Bay and Low Rocky Point for Tuesday
2021-03-08 17:11:00 EST: WXBOT>KA6SMW-7: KFUL 082153Z 20007KT 10SM BKN048 BKN065 19/07 A3013 RMK AO2 SLP203
2021-03-08 17:11:05 EST: KC3NGP-5>WHO-15: KC3NGP
2021-03-08 17:11:06 EST: WHO-15>KC3NGP-5: G/Scott W Berger/PA/United States
2021-03-08 17:11:27 EST: KC3NGP-5>APRSPRO: S0MzTkdQLTUgREVMPzE2MTUyNDE0ODcuNDQ5ODI=
2021-03-08 17:11:29 EST: KC3NGP-5>APRSPRO: S0MzTkdQLTUgTVNHPzE2MTUyNDE0ODguNjkwNjE=
2021-03-08 17:11:35 EST: KC3NGP-5>WHO-15: KC3NGP
2021-03-08 17:11:52 EST: N2JNT-10>SMSGTE: @5186874951 will call u tomorrow.
2021-03-08 17:11:56 EST: KA6SMW-7>WXBOT: Working with TM-D700
2021-03-08 17:11:57 EST: KD2VEZ>KD2VEZ: low to new
2021-03-08 17:12:00 EST: WXBOT>KA6SMW-7: 3 Miles NE Santa Fe Springs CA. This Afternoon,Partly Sunny High 65
2021-03-08 17:12:21 EST: KC3NGP-5>APRSPRO: S0MzTkdQLTUgREVMPzE2MTUyNDE1NDAuODY3OTg=
2021-03-08 17:12:35 EST: SHLBTP>SHLBTP: Info - Cabinet Temp = 74.8F Vcc = 13.5V
2021-03-08 17:13:01 EST: KD2VEZ>KD2VEZ: low to new
2021-03-08 17:13:15 EST: OH6DL-10>ANSRVR: K RPRNET
2021-03-08 17:14:05 EST: KD2VEZ>KD2VEZ: low to new
2021-03-08 17:14:06 EST: ANSRVR>4I1RAC-8: N:PH Removed From Group
2021-03-08 17:14:09 EST: JG1PLA-15>JG1PLA-8: test
2021-03-08 17:15:12 EST: JG1PLA-15>JG1PLA-8: test
2021-03-08 17:15:19 EST: HFOFFW>NWS-WARN: 090015z,FLASH_FLOOD,HIC009
2021-03-08 17:15:19 EST: HFOFFW>NWS_WARN: 090015z,FLASH_FLOOD,HIC009
2021-03-08 17:15:22 EST: VE3YQA>VE3IMH-7: ?APRSD
2021-03-08 17:15:22 EST: VE3IMH-7>VE3YQA: Directs= VE3YQA* VE3YQA VE3IMH* VE3IMH
2021-03-08 17:15:33 EST: VE3IMH>VE3YQA: Directs= VE3IMH-7* VE3YQA* VE3YQA VE3IMH-7
2021-03-08 17:15:37 EST: SMWMWW>BOM-CANCL: 082215z,WIND,SA_MW009
< previous
User guide · FAQ · Blog · Discussion group · Linking to aprs.fi · AIS sites · Service status · Database statistics · Advertising on aprs.fi · Technical details · API · Change log · Planned changes · Credits and thanks · Terms Of Service · iPhone/iPad APRS